createdAt,value
2017-10-15T00:01:11.665Z,11.50
2017-10-15T00:03:39.235Z,12.30
2017-10-15T00:06:06.142Z,10.80
2017-10-15T00:08:32.743Z,12.00
2017-10-15T00:10:59.789Z,11.75
2017-10-15T00:13:27.725Z,12.25
2017-10-15T00:15:55.876Z,11.68
2017-10-15T00:18:22.342Z,10.80
2017-10-15T00:20:49.439Z,10.30
2017-10-15T00:23:15.948Z,10.43
2017-10-15T00:25:42.322Z,11.80
2017-10-15T00:28:08.661Z,10.82
2017-10-15T00:30:36.447Z,11.10
2017-10-15T00:33:02.777Z,11.15
2017-10-15T00:35:30.386Z,11.15
2017-10-15T00:37:58.562Z,10.95
2017-10-15T00:40:26.445Z,11.32
2017-10-15T00:42:52.947Z,11.45
2017-10-15T00:45:19.286Z,11.40
2017-10-15T00:47:45.595Z,11.25
2017-10-15T00:50:11.928Z,10.05
2017-10-15T00:52:38.387Z,12.00
2017-10-15T00:55:04.916Z,11.73
2017-10-15T00:57:32.623Z,13.18
2017-10-15T00:59:59.156Z,11.90
2017-10-15T01:02:25.933Z,12.65
2017-10-15T01:04:53.324Z,12.10
2017-10-15T01:07:20.561Z,12.10
2017-10-15T01:09:46.867Z,12.23
2017-10-15T01:12:13.215Z,11.88
2017-10-15T01:14:41.149Z,13.52
2017-10-15T01:17:08.353Z,13.57
2017-10-15T01:19:34.697Z,13.80
2017-10-15T01:22:01.426Z,13.88
2017-10-15T01:24:27.848Z,12.57
2017-10-15T01:26:54.292Z,11.77
2017-10-15T01:29:20.632Z,11.98
2017-10-15T01:31:47.880Z,11.90
2017-10-15T01:34:14.221Z,11.40
2017-10-15T01:36:40.540Z,10.15
2017-10-15T01:39:08.484Z,10.98
2017-10-15T01:41:35.034Z,11.45
2017-10-15T01:44:02.258Z,11.07
2017-10-15T01:46:28.730Z,10.98
2017-10-15T01:48:56.573Z,12.20
2017-10-15T01:51:24.425Z,11.02
2017-10-15T01:53:51.420Z,11.38
2017-10-15T01:56:17.762Z,10.55
2017-10-15T01:58:44.052Z,10.90
2017-10-15T02:01:10.462Z,11.50
2017-10-15T02:03:38.288Z,10.45
2017-10-15T02:06:04.951Z,11.30
2017-10-15T02:08:31.255Z,10.65
2017-10-15T02:10:57.600Z,11.43
2017-10-15T02:13:25.204Z,11.10
2017-10-15T02:15:52.946Z,10.82
2017-10-15T02:18:19.585Z,10.55
2017-10-15T02:20:47.569Z,11.43
2017-10-15T02:23:14.402Z,10.43
2017-10-15T02:25:40.830Z,11.52
2017-10-15T02:28:07.883Z,10.13
2017-10-15T02:30:35.854Z,10.80
2017-10-15T02:33:02.293Z,11.32
2017-10-15T02:35:29.385Z,10.82
2017-10-15T02:37:57.240Z,10.05
2017-10-15T02:40:25.347Z,11.10
2017-10-15T02:42:51.820Z,10.55
2017-10-15T02:45:18.153Z,10.07
2017-10-15T02:47:44.483Z,10.38
2017-10-15T02:50:10.800Z,10.95
2017-10-15T02:52:38.736Z,10.00
2017-10-15T02:55:05.242Z,11.73
2017-10-15T02:57:33.127Z,10.57
2017-10-15T02:59:59.587Z,10.60
2017-10-15T03:02:34.220Z,9.40
2017-10-15T03:05:00.505Z,10.90
2017-10-15T03:07:26.800Z,10.88
2017-10-15T03:09:53.111Z,10.57
2017-10-15T03:12:20.217Z,11.25
2017-10-15T03:14:46.539Z,10.57
2017-10-15T03:17:12.862Z,9.95
2017-10-15T03:19:40.318Z,9.68
2017-10-15T03:22:06.615Z,10.00
2017-10-15T03:24:35.932Z,10.43
2017-10-15T03:27:03.277Z,10.85
2017-10-15T03:29:30.676Z,10.05
2017-10-15T03:31:59.055Z,10.05
2017-10-15T03:34:25.580Z,9.25
2017-10-15T03:36:52.727Z,9.32
2017-10-15T03:42:13.141Z,10.32
2017-10-15T03:44:39.428Z,9.23
2017-10-15T03:47:07.186Z,9.45
2017-10-15T03:49:33.623Z,10.07
2017-10-15T03:52:01.112Z,8.80
2017-10-15T03:54:27.863Z,10.02
2017-10-15T03:56:54.171Z,9.93
2017-10-15T03:59:21.555Z,8.35
2017-10-15T04:01:48.104Z,8.90
2017-10-15T04:04:15.562Z,10.60
2017-10-15T04:06:44.269Z,9.20
2017-10-15T04:09:11.970Z,9.77
2017-10-15T04:11:39.871Z,8.65
2017-10-15T04:14:06.373Z,8.90
2017-10-15T04:16:33.402Z,8.00
2017-10-15T04:19:00.964Z,8.93
2017-10-15T04:21:27.797Z,9.57
2017-10-15T04:23:54.375Z,8.88
2017-10-15T04:26:20.755Z,8.63
2017-10-15T04:28:47.049Z,9.63
2017-10-15T04:31:13.354Z,9.23
2017-10-15T04:33:41.140Z,9.60
2017-10-15T04:36:07.610Z,9.88
2017-10-15T04:38:35.114Z,9.45
2017-10-15T04:41:01.593Z,9.48
2017-10-15T04:43:29.161Z,10.05
2017-10-15T04:45:55.616Z,9.10
2017-10-15T04:48:22.637Z,7.90
2017-10-15T04:50:48.941Z,9.30
2017-10-15T04:53:15.228Z,8.52
2017-10-15T04:55:43.559Z,9.15
2017-10-15T04:58:11.518Z,9.23
2017-10-15T05:00:38.399Z,8.43
2017-10-15T05:03:05.426Z,9.32
2017-10-15T05:05:31.755Z,9.27
2017-10-15T05:07:59.404Z,9.32
2017-10-15T05:10:27.394Z,8.55
2017-10-15T05:12:55.100Z,7.65
2017-10-15T05:15:21.601Z,8.23
2017-10-15T05:17:48.613Z,8.77
2017-10-15T05:20:16.036Z,7.50
2017-10-15T05:22:43.250Z,8.27
2017-10-15T05:25:12.087Z,7.85
2017-10-15T05:27:39.964Z,8.00
2017-10-15T05:30:06.372Z,7.45
2017-10-15T05:32:35.850Z,7.00
2017-10-15T05:35:02.304Z,8.95
2017-10-15T05:37:28.647Z,8.13
2017-10-15T05:39:54.970Z,7.60
2017-10-15T05:42:21.335Z,6.70
2017-10-15T05:44:49.788Z,7.85
2017-10-15T05:47:17.313Z,7.30
2017-10-15T05:49:44.198Z,7.90
2017-10-15T05:52:10.537Z,7.45
2017-10-15T05:54:37.920Z,6.90
2017-10-15T05:57:05.467Z,7.57
2017-10-15T05:59:31.954Z,8.02
2017-10-15T06:01:59.176Z,7.00
2017-10-15T06:07:25.665Z,6.57
2017-10-15T06:09:52.020Z,6.53
2017-10-15T06:12:18.369Z,6.45
2017-10-15T06:14:44.716Z,6.87
2017-10-15T06:17:11.107Z,7.35
2017-10-15T06:19:38.439Z,7.53
2017-10-15T06:22:04.738Z,8.32
2017-10-15T06:24:30.998Z,7.28
2017-10-15T06:26:57.335Z,7.15
2017-10-15T06:29:23.650Z,7.47
2017-10-15T06:31:50.055Z,9.10
2017-10-15T06:34:16.469Z,8.68
2017-10-15T06:36:42.781Z,7.75
2017-10-15T06:39:09.895Z,8.38
2017-10-15T06:41:36.763Z,8.15
2017-10-15T06:44:03.801Z,8.82
2017-10-15T06:46:30.261Z,8.75
2017-10-15T06:48:56.643Z,9.55
2017-10-15T06:51:23.083Z,9.02
2017-10-15T06:53:49.469Z,9.07
2017-10-15T06:56:15.775Z,9.27
2017-10-15T06:58:42.116Z,8.07
2017-10-15T07:01:08.476Z,8.18
2017-10-15T07:03:34.806Z,8.63
2017-10-15T07:06:01.113Z,9.00
2017-10-15T07:08:27.435Z,9.68
2017-10-15T07:10:53.764Z,8.35
2017-10-15T07:13:20.076Z,8.35
2017-10-15T07:15:46.395Z,8.27
2017-10-15T07:18:13.485Z,8.60
2017-10-15T07:20:39.770Z,8.15
2017-10-15T07:23:06.784Z,9.15
2017-10-15T07:25:33.084Z,8.18
2017-10-15T07:27:59.418Z,8.68
2017-10-15T07:30:25.719Z,8.30
2017-10-15T07:32:52.038Z,8.82
2017-10-15T07:35:18.337Z,8.63
2017-10-15T07:40:18.445Z,7.77
2017-10-15T07:42:44.785Z,7.95
2017-10-15T07:45:11.090Z,8.52
2017-10-15T07:47:37.402Z,8.00
2017-10-15T07:50:03.771Z,6.77
2017-10-15T07:52:30.108Z,8.07
2017-10-15T07:54:56.473Z,6.83
2017-10-15T07:57:22.767Z,6.17
2017-10-15T07:59:49.091Z,6.73
2017-10-15T08:02:15.423Z,6.10
2017-10-15T08:04:41.720Z,5.77
2017-10-15T08:07:08.024Z,6.30
2017-10-15T08:09:35.064Z,6.30
2017-10-15T08:12:01.391Z,6.80
2017-10-15T08:14:27.679Z,6.97
2017-10-15T08:16:53.984Z,7.60
2017-10-15T08:19:20.308Z,8.50
2017-10-15T08:21:46.613Z,6.43
2017-10-15T08:24:12.941Z,7.17
2017-10-15T08:26:39.240Z,6.37
2017-10-15T08:29:06.291Z,6.73
2017-10-15T08:31:32.562Z,7.50
2017-10-15T08:33:58.805Z,6.43
2017-10-15T08:36:25.086Z,5.50
2017-10-15T08:38:51.454Z,5.83
2017-10-15T08:41:17.757Z,5.43
2017-10-15T08:43:44.059Z,5.80
2017-10-15T08:46:10.676Z,4.63
2017-10-15T08:48:36.947Z,5.57
2017-10-15T08:51:03.248Z,5.20
2017-10-15T08:53:30.313Z,5.10
2017-10-15T08:55:56.615Z,5.13
2017-10-15T08:58:22.928Z,4.30
2017-10-15T09:00:49.287Z,4.10
2017-10-15T09:03:16.726Z,5.20
2017-10-15T09:05:43.054Z,4.20
2017-10-15T09:08:09.416Z,4.30
2017-10-15T09:10:35.730Z,6.53
2017-10-15T09:13:02.808Z,9.20
2017-10-15T09:15:29.074Z,5.57
2017-10-15T09:17:55.373Z,5.37
2017-10-15T09:20:21.635Z,6.20
2017-10-15T09:22:48.730Z,6.60
2017-10-15T09:25:15.007Z,6.33
2017-10-15T09:27:42.063Z,5.50
2017-10-15T09:30:08.354Z,6.30
2017-10-15T09:32:34.701Z,5.57
2017-10-15T09:35:01.031Z,5.23
2017-10-15T09:37:27.327Z,6.07
2017-10-15T09:39:53.632Z,6.53
2017-10-15T09:42:19.966Z,10.10
2017-10-15T09:44:46.370Z,10.70
2017-10-15T09:47:12.682Z,5.13
2017-10-15T09:49:38.984Z,6.33
2017-10-15T09:52:05.283Z,8.13
2017-10-15T09:54:31.558Z,5.47
2017-10-15T09:56:57.856Z,5.57
2017-10-15T09:59:24.198Z,7.40
2017-10-15T10:01:50.506Z,5.00
2017-10-15T10:04:17.709Z,4.60
2017-10-15T10:06:44.051Z,5.00
2017-10-15T10:09:11.066Z,4.93
2017-10-15T10:11:37.381Z,5.07
2017-10-15T10:14:03.666Z,4.07
2017-10-15T10:16:29.971Z,4.60
2017-10-15T10:18:57.071Z,4.20
2017-10-15T10:21:23.511Z,5.20
2017-10-15T10:23:49.848Z,4.43
2017-10-15T10:26:16.161Z,4.00
2017-10-15T10:28:42.434Z,4.27
2017-10-15T10:31:08.741Z,3.80
2017-10-15T10:33:35.039Z,4.10
2017-10-15T10:36:01.386Z,4.73
2017-10-15T10:38:27.709Z,5.50
2017-10-15T10:40:54.010Z,3.90
2017-10-15T10:43:20.351Z,4.40
2017-10-15T10:45:46.666Z,3.50
2017-10-15T10:48:12.999Z,3.40
2017-10-15T10:50:39.298Z,3.20
2017-10-15T10:53:06.333Z,3.60
2017-10-15T10:55:36.099Z,2.50
2017-10-15T10:58:02.395Z,2.77
2017-10-15T11:00:29.514Z,2.77
2017-10-15T11:02:55.816Z,3.00
2017-10-15T11:05:22.173Z,3.13
2017-10-15T11:07:54.850Z,2.87
2017-10-15T11:10:21.225Z,2.57
2017-10-15T11:12:47.530Z,2.30
2017-10-15T11:15:14.256Z,2.30
2017-10-15T11:17:41.237Z,2.23
2017-10-15T11:20:09.524Z,2.67
2017-10-15T11:22:37.617Z,2.97
2017-10-15T11:25:03.928Z,2.63
2017-10-15T11:27:30.232Z,2.70
2017-10-15T11:29:56.539Z,2.30
2017-10-15T11:32:23.551Z,2.33
2017-10-15T11:34:49.872Z,2.20
2017-10-15T11:37:16.172Z,2.70
2017-10-15T11:39:42.505Z,2.60
2017-10-15T11:42:08.795Z,2.43
2017-10-15T11:44:35.848Z,1.90
2017-10-15T11:47:02.881Z,2.27
2017-10-15T11:49:29.966Z,3.00
2017-10-15T11:51:56.971Z,3.10
2017-10-15T11:54:24.004Z,2.30
2017-10-15T11:56:50.293Z,3.30
2017-10-15T11:59:16.564Z,2.67
2017-10-15T12:01:42.840Z,2.70
2017-10-15T12:04:09.114Z,1.93
2017-10-15T12:06:35.683Z,2.53
2017-10-15T12:09:02.005Z,2.23
2017-10-15T12:11:29.019Z,2.20
2017-10-15T12:13:55.412Z,2.40
2017-10-15T12:16:21.733Z,2.57
2017-10-15T12:18:48.121Z,2.10
2017-10-15T12:21:14.410Z,2.20
2017-10-15T12:23:40.680Z,3.10
2017-10-15T12:26:06.968Z,2.70
2017-10-15T12:28:33.576Z,2.57
2017-10-15T12:30:59.879Z,2.33
2017-10-15T12:33:26.913Z,2.93
2017-10-15T12:35:53.240Z,3.50
2017-10-15T12:38:19.530Z,3.17
2017-10-15T12:40:45.833Z,3.30
2017-10-15T12:43:12.101Z,3.20
2017-10-15T12:45:38.387Z,2.50
2017-10-15T12:48:04.700Z,2.70
2017-10-15T12:50:31.767Z,2.67
2017-10-15T12:52:58.061Z,2.93
2017-10-15T12:55:25.106Z,3.30
2017-10-15T12:57:51.432Z,3.20
2017-10-15T13:00:17.717Z,3.57
2017-10-15T13:02:44.035Z,3.70
2017-10-15T13:05:10.337Z,3.23
2017-10-15T13:07:37.714Z,5.10
2017-10-15T13:10:03.981Z,4.83
2017-10-15T13:12:30.268Z,4.47
2017-10-15T13:14:57.327Z,4.30
2017-10-15T13:17:23.604Z,4.47
2017-10-15T13:19:49.984Z,4.03
2017-10-15T13:22:16.275Z,3.03
2017-10-15T13:24:43.322Z,3.33
2017-10-15T13:27:10.402Z,4.20
2017-10-15T13:29:36.664Z,4.20
2017-10-15T13:32:03.061Z,3.47
2017-10-15T13:34:29.337Z,2.93
2017-10-15T13:36:55.637Z,2.50
2017-10-15T13:39:21.996Z,2.20
2017-10-15T13:41:48.970Z,2.77
2017-10-15T13:44:15.291Z,2.57
2017-10-15T13:46:41.606Z,2.87
2017-10-15T13:49:07.900Z,2.80
2017-10-15T13:51:34.197Z,2.43
2017-10-15T13:54:00.520Z,2.40
2017-10-15T13:56:26.860Z,2.90
2017-10-15T13:58:53.142Z,2.10
2017-10-15T14:01:20.129Z,2.40
2017-10-15T14:03:46.417Z,2.10
2017-10-15T14:06:13.491Z,2.00
2017-10-15T14:08:39.884Z,2.10
2017-10-15T14:11:06.145Z,2.47
2017-10-15T14:13:32.428Z,2.27
2017-10-15T14:15:58.761Z,2.30
2017-10-15T14:18:25.047Z,2.47
2017-10-15T14:20:51.411Z,2.67
2017-10-15T14:23:17.711Z,2.13
2017-10-15T14:25:44.009Z,2.20
2017-10-15T14:28:10.415Z,3.13
2017-10-15T14:30:37.447Z,2.67
2017-10-15T14:33:03.780Z,2.33
2017-10-15T14:35:30.066Z,2.97
2017-10-15T14:37:56.375Z,2.70
2017-10-15T14:40:22.745Z,1.83
2017-10-15T14:42:49.069Z,2.57
2017-10-15T14:45:15.425Z,2.50
2017-10-15T14:47:41.709Z,2.53
2017-10-15T14:50:08.334Z,2.40
2017-10-15T14:52:34.683Z,2.70
2017-10-15T14:55:00.971Z,2.90
2017-10-15T14:57:27.301Z,2.63
2017-10-15T14:59:53.559Z,3.30
2017-10-15T15:02:19.850Z,4.37
2017-10-15T15:04:46.930Z,3.73
2017-10-15T15:07:13.508Z,3.07
2017-10-15T15:09:39.800Z,2.83
2017-10-15T15:12:06.156Z,2.87
2017-10-15T15:14:32.872Z,2.63
2017-10-15T15:16:59.168Z,2.87
2017-10-15T15:19:25.520Z,2.67
2017-10-15T15:21:51.849Z,4.40
2017-10-15T15:24:18.284Z,3.07
2017-10-15T15:26:44.677Z,2.80
2017-10-15T15:29:10.996Z,2.83
2017-10-15T15:31:38.142Z,2.80
2017-10-15T15:34:04.577Z,2.80
2017-10-15T15:36:31.607Z,2.80
2017-10-15T15:38:57.913Z,3.40
2017-10-15T15:41:24.201Z,2.87
2017-10-15T15:43:50.488Z,3.60
2017-10-15T15:46:16.779Z,3.87
2017-10-15T15:48:43.091Z,3.80
2017-10-15T15:51:09.385Z,3.80
2017-10-15T15:53:36.441Z,4.57
2017-10-15T15:56:03.471Z,4.00
2017-10-15T15:58:29.768Z,3.80
2017-10-15T16:00:56.087Z,4.90
2017-10-15T16:03:22.395Z,4.13
2017-10-15T16:05:49.031Z,3.50
2017-10-15T16:08:15.315Z,4.30
2017-10-15T16:10:41.581Z,4.00
2017-10-15T16:13:07.868Z,4.07
2017-10-15T16:15:34.181Z,3.83
2017-10-15T16:18:00.506Z,4.67
2017-10-15T16:20:27.566Z,5.37
2017-10-15T16:22:54.892Z,4.73
2017-10-15T16:25:21.193Z,4.80
2017-10-15T16:27:47.508Z,4.40
2017-10-15T16:30:13.841Z,5.50
2017-10-15T16:32:40.182Z,5.07
2017-10-15T16:35:06.499Z,5.13
2017-10-15T16:37:32.779Z,4.60
2017-10-15T16:39:59.103Z,4.80
2017-10-15T16:42:26.182Z,5.03
2017-10-15T16:44:52.483Z,4.60
2017-10-15T16:47:18.820Z,5.13
2017-10-15T16:49:45.123Z,5.07
2017-10-15T16:52:11.456Z,5.27
2017-10-15T16:54:39.715Z,3.90
2017-10-15T16:57:06.393Z,4.27
2017-10-15T16:59:32.713Z,4.47
2017-10-15T17:01:59.078Z,3.83
2017-10-15T17:04:25.462Z,3.60
2017-10-15T17:06:51.825Z,4.60
2017-10-15T17:09:18.958Z,5.20
2017-10-15T17:11:46.096Z,4.30
2017-10-15T17:14:12.498Z,4.50
2017-10-15T17:16:38.845Z,4.47
2017-10-15T17:19:05.309Z,4.07
2017-10-15T17:21:32.425Z,4.83
2017-10-15T17:23:58.784Z,4.63
2017-10-15T17:26:25.936Z,4.03
2017-10-15T17:28:53.028Z,6.50
2017-10-15T17:31:19.410Z,5.80
2017-10-15T17:33:46.468Z,8.00
2017-10-15T17:36:12.907Z,12.50
2017-10-15T17:38:39.285Z,12.17
2017-10-15T17:41:05.684Z,19.20
2017-10-15T17:43:32.079Z,15.40
2017-10-15T17:45:59.207Z,15.83
2017-10-15T17:48:25.534Z,18.50
2017-10-15T17:50:51.969Z,20.30
2017-10-15T17:53:18.326Z,18.80
2017-10-15T17:55:45.417Z,18.77
2017-10-15T17:58:11.857Z,18.30
2017-10-15T18:00:38.294Z,23.87
2017-10-15T18:03:04.651Z,18.20
2017-10-15T18:05:31.738Z,16.43
2017-10-15T18:07:58.379Z,14.27
2017-10-15T18:10:24.661Z,13.00
2017-10-15T18:12:51.737Z,12.87
2017-10-15T18:15:18.187Z,11.23
2017-10-15T18:17:44.515Z,11.00
2017-10-15T18:20:11.016Z,11.00
2017-10-15T18:22:37.522Z,9.00
2017-10-15T18:25:03.925Z,9.00
2017-10-15T18:27:30.430Z,7.83
2017-10-15T18:29:56.832Z,7.83
2017-10-15T18:32:23.333Z,9.47
2017-10-15T18:34:49.700Z,9.57
2017-10-15T18:37:16.137Z,10.10
2017-10-15T18:39:42.566Z,11.20
2017-10-15T18:42:08.995Z,11.80
2017-10-15T18:44:35.495Z,11.83
2017-10-15T18:47:01.946Z,12.43
2017-10-15T18:49:29.128Z,9.50
2017-10-15T18:51:56.550Z,9.10
2017-10-15T18:54:23.728Z,8.70
2017-10-15T18:56:50.148Z,8.67
2017-10-15T18:59:16.621Z,8.90
2017-10-15T19:01:43.060Z,8.30
2017-10-15T19:04:09.520Z,8.50
2017-10-15T19:06:36.668Z,7.77
2017-10-15T19:09:03.899Z,9.30
2017-10-15T19:11:30.547Z,8.70
2017-10-15T19:13:56.991Z,9.17
2017-10-15T19:16:23.401Z,8.47
2017-10-15T19:18:49.982Z,9.30
2017-10-15T19:21:16.416Z,9.60
2017-10-15T19:23:43.184Z,12.00
2017-10-15T19:26:09.594Z,10.03
2017-10-15T19:28:36.001Z,10.00
2017-10-15T19:31:02.444Z,11.80
2017-10-15T19:33:28.873Z,10.53
2017-10-15T19:35:55.310Z,9.37
2017-10-15T19:38:21.694Z,10.33
2017-10-15T19:40:48.988Z,10.27
2017-10-15T19:43:15.394Z,11.23
2017-10-15T19:45:42.564Z,10.20
2017-10-15T19:48:08.988Z,9.40
2017-10-15T19:50:35.413Z,9.30
2017-10-15T19:53:03.509Z,8.70
2017-10-15T19:55:29.917Z,10.10
2017-10-15T19:57:57.099Z,8.87
2017-10-15T20:00:23.577Z,10.83
2017-10-15T20:02:50.955Z,11.70
2017-10-15T20:05:17.367Z,10.60
2017-10-15T20:07:44.437Z,11.33
2017-10-15T20:10:11.681Z,11.40
2017-10-15T20:12:37.992Z,11.13
2017-10-15T20:15:05.149Z,11.43
2017-10-15T20:17:32.310Z,11.23
2017-10-15T20:19:59.435Z,11.37
2017-10-15T20:22:25.849Z,11.00
2017-10-15T20:24:52.213Z,10.63
2017-10-15T20:27:18.612Z,10.37
2017-10-15T20:29:45.014Z,10.50
2017-10-15T20:32:11.367Z,10.80
2017-10-15T20:34:37.779Z,10.33
2017-10-15T20:37:04.154Z,11.07
2017-10-15T20:39:31.266Z,11.07
2017-10-15T20:41:57.632Z,10.93
2017-10-15T20:44:24.809Z,10.40
2017-10-15T20:46:51.136Z,11.40
2017-10-15T20:49:17.510Z,12.53
2017-10-15T20:51:43.842Z,10.37
2017-10-15T20:54:10.178Z,11.33
2017-10-15T20:56:36.596Z,10.80
2017-10-15T20:59:02.935Z,10.87
2017-10-15T21:01:29.315Z,11.87
2017-10-15T21:03:55.624Z,11.07
2017-10-15T21:06:22.274Z,10.57
2017-10-15T21:08:48.619Z,11.83
2017-10-15T21:11:14.934Z,10.80
2017-10-15T21:13:41.260Z,10.30
2017-10-15T21:16:07.524Z,10.80
2017-10-15T21:18:33.874Z,9.90
2017-10-15T21:21:00.929Z,9.30
2017-10-15T21:23:27.186Z,9.37
2017-10-15T21:25:53.530Z,9.97
2017-10-15T21:28:19.857Z,10.27
2017-10-15T21:30:46.152Z,9.47
2017-10-15T21:33:13.245Z,8.63
2017-10-15T21:35:39.557Z,10.30
2017-10-15T21:38:05.893Z,10.15
2017-10-15T21:40:32.218Z,11.48
2017-10-15T21:42:58.601Z,10.63
2017-10-15T21:45:24.944Z,9.68
2017-10-15T21:47:52.018Z,11.05
2017-10-15T21:50:18.323Z,10.60
2017-10-15T21:52:45.708Z,10.60
2017-10-15T21:55:12.045Z,10.90
2017-10-15T21:57:39.158Z,10.73
2017-10-15T22:00:06.262Z,10.20
2017-10-15T22:02:32.566Z,10.52
2017-10-15T22:04:58.899Z,10.15
2017-10-15T22:07:25.225Z,10.85
2017-10-15T22:09:51.553Z,10.48
2017-10-15T22:12:17.908Z,11.25
2017-10-15T22:14:44.243Z,9.23
2017-10-15T22:17:10.536Z,9.70
2017-10-15T22:19:36.905Z,9.05
2017-10-15T22:22:09.238Z,10.02
2017-10-15T22:24:35.620Z,10.27
2017-10-15T22:27:02.701Z,9.57
2017-10-15T22:29:29.043Z,9.15
2017-10-15T22:31:55.318Z,9.18
2017-10-15T22:34:21.596Z,8.77
2017-10-15T22:36:47.907Z,9.10
2017-10-15T22:39:14.257Z,10.05
2017-10-15T22:41:40.578Z,8.95
2017-10-15T22:44:06.906Z,8.35
2017-10-15T22:46:33.228Z,10.10
2017-10-15T22:49:00.286Z,8.90
2017-10-15T22:51:27.337Z,9.07
2017-10-15T22:53:53.646Z,9.32
2017-10-15T22:56:19.874Z,8.98
2017-10-15T22:58:46.178Z,8.30
2017-10-15T23:01:12.542Z,8.85
2017-10-15T23:03:38.910Z,8.40
2017-10-15T23:06:05.231Z,8.30
2017-10-15T23:08:31.559Z,8.48
2017-10-15T23:10:57.849Z,7.70
2017-10-15T23:13:24.152Z,7.97
2017-10-15T23:15:50.457Z,10.23
2017-10-15T23:18:17.626Z,9.95
2017-10-15T23:20:43.942Z,10.73
2017-10-15T23:23:10.231Z,10.48
2017-10-15T23:25:36.532Z,9.32
2017-10-15T23:28:02.841Z,7.65
2017-10-15T23:30:29.171Z,8.82
2017-10-15T23:32:56.235Z,8.20
2017-10-15T23:35:22.529Z,8.10
2017-10-15T23:37:48.861Z,8.40
2017-10-15T23:40:15.147Z,8.77
2017-10-15T23:42:41.465Z,7.78
2017-10-15T23:45:07.830Z,7.15
2017-10-15T23:47:34.102Z,7.00
2017-10-15T23:50:00.387Z,7.82
2017-10-15T23:52:26.706Z,8.15
2017-10-15T23:54:53.031Z,7.43
2017-10-15T23:57:19.369Z,8.43
2017-10-15T23:59:45.667Z,7.30
